createdAt,value
2022-12-11T00:01:29.788Z,39.20
2022-12-11T00:03:56.200Z,29.65
2022-12-11T00:06:23.618Z,32.90
2022-12-11T00:08:54.614Z,30.73
2022-12-11T00:11:22.194Z,36.38
2022-12-11T00:13:48.626Z,32.42
2022-12-11T00:16:15.401Z,33.03
2022-12-11T00:18:42.066Z,38.35
2022-12-11T00:21:13.413Z,37.80
2022-12-11T00:23:40.589Z,36.58
2022-12-11T00:26:09.973Z,37.05
2022-12-11T00:28:36.368Z,35.60
2022-12-11T00:31:07.071Z,33.22
2022-12-11T00:33:33.596Z,35.35
2022-12-11T00:35:59.989Z,40.63
2022-12-11T00:38:26.660Z,40.22
2022-12-11T00:40:53.191Z,43.28
2022-12-11T00:43:19.569Z,34.22
2022-12-11T00:45:47.361Z,40.22
2022-12-11T00:48:14.398Z,32.78
2022-12-11T00:50:41.554Z,37.60
2022-12-11T00:53:07.958Z,34.13
2022-12-11T00:55:55.457Z,36.72
2022-12-11T00:58:22.605Z,38.22
2022-12-11T01:00:50.431Z,34.65
2022-12-11T01:03:17.673Z,34.92
2022-12-11T01:05:54.400Z,43.58
2022-12-11T01:08:21.047Z,39.22
2022-12-11T01:10:47.574Z,37.67
2022-12-11T01:13:14.006Z,37.95
2022-12-11T01:15:43.817Z,33.83
2022-12-11T01:18:12.215Z,37.22
2022-12-11T01:20:40.638Z,36.67
2022-12-11T01:23:07.026Z,39.67
2022-12-11T01:25:35.597Z,39.90
2022-12-11T01:28:01.978Z,37.03
2022-12-11T01:30:28.415Z,39.10
2022-12-11T01:32:54.846Z,38.85
2022-12-11T01:35:21.274Z,38.17
2022-12-11T01:37:47.736Z,43.28
2022-12-11T01:40:17.695Z,37.13
2022-12-11T01:42:44.660Z,38.08
2022-12-11T01:45:34.637Z,39.30
2022-12-11T01:48:08.182Z,33.17
2022-12-11T01:50:39.788Z,38.03
2022-12-11T01:53:08.765Z,38.08
2022-12-11T01:55:37.447Z,39.38
2022-12-11T01:58:04.281Z,37.53
2022-12-11T02:00:30.690Z,35.67
2022-12-11T02:02:57.115Z,38.85
2022-12-11T02:05:23.496Z,34.80
2022-12-11T02:07:59.898Z,40.50
2022-12-11T02:10:39.050Z,34.15
2022-12-11T02:13:17.463Z,35.55
2022-12-11T02:15:51.421Z,35.95
2022-12-11T02:18:41.607Z,40.03
2022-12-11T02:21:23.312Z,33.05
2022-12-11T02:24:28.272Z,37.70
2022-12-11T02:27:23.266Z,35.25
2022-12-11T02:30:07.181Z,36.85
2022-12-11T02:32:47.689Z,35.65
2022-12-11T02:35:24.319Z,35.55
2022-12-11T02:37:57.177Z,34.35
2022-12-11T02:40:28.049Z,38.13
2022-12-11T02:42:58.100Z,42.92
2022-12-11T02:45:27.209Z,32.80
2022-12-11T02:47:54.885Z,33.67
2022-12-11T02:50:23.732Z,35.95
2022-12-11T02:52:53.514Z,36.20
2022-12-11T02:55:20.466Z,35.67
2022-12-11T02:58:00.441Z,37.00
2022-12-11T03:00:26.902Z,33.75
2022-12-11T03:02:53.452Z,34.72
2022-12-11T03:05:20.194Z,30.70
2022-12-11T03:07:46.609Z,34.25
2022-12-11T03:10:18.648Z,35.47
2022-12-11T03:12:53.177Z,36.30
2022-12-11T03:15:23.375Z,31.38
2022-12-11T03:18:09.997Z,32.83
2022-12-11T03:20:50.352Z,36.03
2022-12-11T03:23:41.313Z,33.67
2022-12-11T03:26:13.381Z,35.35
2022-12-11T03:28:39.724Z,35.30
2022-12-11T03:31:11.958Z,33.22
2022-12-11T03:33:41.839Z,36.55
2022-12-11T03:36:13.100Z,33.33
2022-12-11T03:38:49.087Z,34.05
2022-12-11T03:41:18.635Z,32.00
2022-12-11T03:43:45.922Z,30.42
2022-12-11T03:46:15.348Z,30.10
2022-12-11T03:48:45.475Z,32.78
2022-12-11T03:51:13.034Z,31.27
2022-12-11T03:53:39.800Z,36.20
2022-12-11T03:56:08.917Z,31.63
2022-12-11T03:58:35.532Z,29.90
2022-12-11T04:01:01.962Z,31.58
2022-12-11T04:03:28.529Z,29.40
2022-12-11T04:05:55.794Z,28.85
2022-12-11T04:08:23.113Z,31.50
2022-12-11T04:11:10.187Z,28.13
2022-12-11T04:13:37.246Z,26.20
2022-12-11T04:16:04.216Z,31.45
2022-12-11T04:18:49.015Z,33.70
2022-12-11T04:21:39.221Z,32.50
2022-12-11T04:24:15.526Z,34.17
2022-12-11T04:26:46.488Z,32.83
2022-12-11T04:29:14.225Z,34.85
2022-12-11T04:31:40.665Z,32.47
2022-12-11T04:34:07.345Z,31.67
2022-12-11T04:36:33.763Z,35.33
2022-12-11T04:39:00.155Z,28.40
2022-12-11T04:41:26.546Z,30.83
2022-12-11T04:43:52.919Z,32.00
2022-12-11T04:46:24.725Z,31.10
2022-12-11T04:48:57.001Z,32.85
2022-12-11T04:51:24.826Z,35.67
2022-12-11T04:53:51.436Z,28.45
2022-12-11T04:56:18.123Z,38.30
2022-12-11T04:58:45.417Z,33.15
2022-12-11T05:01:17.688Z,34.38
2022-12-11T05:03:44.308Z,34.50
2022-12-11T05:06:11.794Z,31.73
2022-12-11T05:08:40.791Z,33.17
2022-12-11T05:11:10.492Z,30.98
2022-12-11T05:13:36.949Z,36.10
2022-12-11T05:16:05.667Z,31.20
2022-12-11T05:18:32.101Z,32.25
2022-12-11T05:21:05.535Z,32.35
2022-12-11T05:23:32.446Z,32.70
2022-12-11T05:26:01.876Z,37.22
2022-12-11T05:28:31.771Z,34.50
2022-12-11T05:31:00.269Z,31.90
2022-12-11T05:33:27.220Z,35.35
2022-12-11T05:35:53.792Z,37.33
2022-12-11T05:38:20.531Z,33.00
2022-12-11T05:41:02.870Z,35.83
2022-12-11T05:43:32.088Z,35.90
2022-12-11T05:51:01.154Z,35.92
2022-12-11T05:53:28.243Z,37.33
2022-12-11T05:55:54.919Z,40.58
2022-12-11T05:58:21.565Z,36.10
2022-12-11T06:00:48.043Z,34.13
2022-12-11T06:03:14.599Z,38.88
2022-12-11T06:05:41.997Z,31.80
2022-12-11T06:08:08.942Z,33.58
2022-12-11T06:10:35.414Z,38.22
2022-12-11T06:13:01.837Z,32.33
2022-12-11T06:15:31.130Z,38.72
2022-12-11T06:17:57.532Z,38.38
2022-12-11T06:20:23.933Z,33.65
2022-12-11T06:22:50.337Z,38.10
2022-12-11T06:25:16.790Z,35.50
2022-12-11T06:27:43.195Z,39.22
2022-12-11T06:30:10.087Z,38.22
2022-12-11T06:32:36.839Z,35.63
2022-12-11T06:35:03.354Z,38.15
2022-12-11T06:37:29.737Z,38.58
2022-12-11T06:39:56.122Z,42.38
2022-12-11T06:42:22.638Z,44.55
2022-12-11T06:44:49.016Z,39.75
2022-12-11T06:47:15.404Z,40.15
2022-12-11T06:49:41.805Z,37.22
2022-12-11T06:52:08.210Z,38.25
2022-12-11T06:54:34.596Z,40.85
2022-12-11T06:57:00.971Z,41.97
2022-12-11T06:59:27.346Z,42.40
2022-12-11T07:01:53.827Z,39.00
2022-12-11T07:04:20.276Z,36.92
2022-12-11T07:06:47.426Z,39.58
2022-12-11T07:09:13.797Z,43.88
2022-12-11T07:11:40.207Z,40.65
2022-12-11T07:14:06.580Z,47.03
2022-12-11T07:16:33.149Z,41.90
2022-12-11T07:19:00.078Z,42.80
2022-12-11T07:21:26.469Z,47.38
2022-12-11T07:23:52.856Z,44.20
2022-12-11T07:26:21.965Z,36.42
2022-12-11T07:28:48.949Z,42.45
2022-12-11T07:31:20.856Z,41.20
2022-12-11T07:33:47.693Z,44.30
2022-12-11T07:36:15.404Z,40.25
2022-12-11T07:38:41.962Z,39.53
2022-12-11T07:41:10.955Z,40.95
2022-12-11T07:43:37.478Z,36.75
2022-12-11T07:46:05.770Z,44.78
2022-12-11T07:48:32.213Z,46.22
2022-12-11T07:51:17.679Z,41.85
2022-12-11T07:53:46.049Z,45.53
2022-12-11T07:56:12.629Z,35.78
2022-12-11T07:58:39.693Z,32.92
2022-12-11T08:01:10.332Z,39.17
2022-12-11T08:03:37.142Z,32.47
2022-12-11T08:06:06.797Z,34.97
2022-12-11T08:08:33.214Z,31.30
2022-12-11T08:11:08.558Z,39.22
2022-12-11T08:13:35.240Z,32.50
2022-12-11T08:16:06.677Z,34.42
2022-12-11T08:18:34.871Z,34.53
2022-12-11T08:21:06.230Z,33.80
2022-12-11T08:23:32.787Z,34.40
2022-12-11T08:25:59.185Z,29.83
2022-12-11T08:28:27.296Z,33.88
2022-12-11T08:30:53.896Z,27.35
2022-12-11T08:33:20.343Z,36.90
2022-12-11T08:35:47.369Z,35.20
2022-12-11T08:38:13.769Z,34.85
2022-12-11T08:40:40.183Z,35.00
2022-12-11T08:43:06.577Z,37.85
2022-12-11T08:45:32.994Z,28.02
2022-12-11T08:48:00.817Z,27.10
2022-12-11T08:50:27.243Z,27.90
2022-12-11T08:52:53.824Z,27.50
2022-12-11T08:55:21.952Z,30.10
2022-12-11T08:57:48.345Z,25.95
2022-12-11T09:00:15.498Z,26.30
2022-12-11T09:02:41.923Z,33.83
2022-12-11T09:05:09.608Z,30.13
2022-12-11T09:07:38.112Z,32.97
2022-12-11T09:10:07.109Z,31.48
2022-12-11T09:12:34.623Z,26.83
2022-12-11T09:15:01.014Z,25.33
2022-12-11T09:17:27.568Z,26.60
2022-12-11T09:19:53.950Z,26.42
2022-12-11T09:22:20.354Z,28.33
2022-12-11T09:24:47.029Z,28.17
2022-12-11T09:27:13.404Z,30.65
2022-12-11T09:29:39.772Z,25.17
2022-12-11T09:32:06.193Z,30.95
2022-12-11T09:34:35.584Z,28.98
2022-12-11T09:37:02.690Z,30.50
2022-12-11T09:39:32.395Z,30.65
2022-12-11T09:42:23.645Z,26.55
2022-12-11T09:44:56.349Z,28.88
2022-12-11T09:47:43.786Z,22.63
2022-12-11T09:50:10.295Z,29.35
2022-12-11T09:53:04.911Z,24.63
2022-12-11T09:55:42.992Z,30.77
2022-12-11T09:58:56.968Z,32.60
2022-12-11T10:01:34.679Z,27.98
2022-12-11T10:04:24.361Z,25.75
2022-12-11T10:07:05.563Z,30.08
2022-12-11T10:12:19.482Z,24.67
2022-12-11T10:14:51.776Z,24.65
2022-12-11T10:17:23.304Z,28.75
2022-12-11T10:19:49.977Z,29.70
2022-12-11T10:22:24.395Z,29.10
2022-12-11T10:25:11.801Z,26.83
2022-12-11T10:27:40.237Z,29.02
2022-12-11T10:30:12.756Z,33.53
2022-12-11T10:33:06.547Z,26.10
2022-12-11T10:35:39.100Z,33.15
2022-12-11T10:38:31.972Z,39.33
2022-12-11T10:41:05.104Z,29.13
2022-12-11T10:43:37.337Z,33.83
2022-12-11T10:46:14.309Z,28.77
2022-12-11T10:48:53.512Z,26.88
2022-12-11T10:51:23.830Z,30.38
2022-12-11T10:53:52.696Z,24.80
2022-12-11T10:56:28.789Z,28.20
2022-12-11T10:58:57.683Z,29.35
2022-12-11T11:01:27.423Z,25.88
2022-12-11T11:04:06.655Z,26.23
2022-12-11T11:06:33.534Z,32.67
2022-12-11T11:09:01.792Z,26.80
2022-12-11T11:11:38.144Z,29.75
2022-12-11T11:14:06.654Z,27.50
2022-12-11T11:16:37.129Z,32.67
2022-12-11T11:19:04.114Z,26.50
2022-12-11T11:21:31.808Z,34.20
2022-12-11T11:23:58.301Z,28.83
2022-12-11T11:26:34.307Z,31.05
2022-12-11T11:29:24.249Z,33.30
2022-12-11T11:31:50.724Z,33.03
2022-12-11T11:34:22.189Z,32.40
2022-12-11T11:37:00.872Z,27.05
2022-12-11T11:39:37.648Z,30.92
2022-12-11T11:42:20.916Z,29.77
2022-12-11T11:45:05.422Z,30.23
2022-12-11T11:47:39.624Z,39.60
2022-12-11T11:50:20.061Z,27.20
2022-12-11T11:52:55.609Z,31.75
2022-12-11T11:55:37.692Z,29.17
2022-12-11T11:58:15.521Z,29.90
2022-12-11T12:00:42.025Z,35.10
2022-12-11T12:03:17.272Z,28.45
2022-12-11T12:06:05.261Z,27.13
2022-12-11T12:08:43.856Z,27.58
2022-12-11T12:11:15.777Z,29.30
2022-12-11T12:14:01.274Z,31.75
2022-12-11T12:16:55.987Z,27.50
2022-12-11T12:19:37.046Z,27.92
2022-12-11T12:22:33.419Z,32.45
2022-12-11T12:25:18.662Z,31.58
2022-12-11T12:28:02.272Z,27.27
2022-12-11T12:30:35.048Z,35.33
2022-12-11T12:33:25.585Z,30.48
2022-12-11T12:36:07.180Z,31.02
2022-12-11T12:38:59.118Z,33.40
2022-12-11T12:42:07.530Z,29.05
2022-12-11T12:45:03.458Z,24.17
2022-12-11T12:50:25.669Z,31.23
2022-12-11T12:52:57.667Z,35.20
2022-12-11T12:55:31.860Z,33.42
2022-12-11T12:58:05.291Z,32.85
2022-12-11T13:00:42.185Z,31.00
2022-12-11T13:03:15.364Z,29.70
2022-12-11T13:05:56.613Z,30.95
2022-12-11T13:11:01.938Z,30.27
2022-12-11T13:13:35.877Z,34.80
2022-12-11T13:16:20.292Z,36.40
2022-12-11T13:18:48.416Z,30.80
2022-12-11T13:21:33.680Z,32.67
2022-12-11T13:24:21.800Z,30.45
2022-12-11T13:26:50.057Z,29.17
2022-12-11T13:29:35.830Z,30.92
2022-12-11T13:32:24.700Z,31.17
2022-12-11T13:34:55.171Z,30.95
2022-12-11T13:37:33.780Z,30.38
2022-12-11T13:40:05.896Z,30.27
2022-12-11T13:42:37.673Z,27.63
2022-12-11T13:45:04.996Z,33.10
2022-12-11T13:47:32.867Z,30.52
2022-12-11T13:50:18.049Z,30.33
2022-12-11T13:52:56.510Z,29.98
2022-12-11T13:55:31.384Z,31.83
2022-12-11T13:57:58.259Z,33.00
2022-12-11T14:00:30.313Z,30.55
2022-12-11T14:03:00.269Z,30.55
2022-12-11T14:05:26.905Z,30.85
2022-12-11T14:08:00.228Z,30.67
2022-12-11T14:10:29.578Z,27.88
2022-12-11T14:12:58.959Z,33.08
2022-12-11T14:15:27.688Z,29.58
2022-12-11T14:17:54.870Z,31.92
2022-12-11T14:20:25.606Z,32.40
2022-12-11T14:22:51.995Z,27.27
2022-12-11T14:25:24.822Z,32.35
2022-12-11T14:27:56.679Z,34.45
2022-12-11T14:30:32.366Z,29.17
2022-12-11T14:33:02.806Z,30.98
2022-12-11T14:35:38.866Z,42.90
2022-12-11T14:38:15.970Z,34.15
2022-12-11T14:40:46.735Z,35.60
2022-12-11T14:43:54.500Z,33.58
2022-12-11T14:46:34.602Z,36.65
2022-12-11T14:49:06.079Z,34.83
2022-12-11T14:51:39.615Z,40.95
2022-12-11T14:54:08.221Z,57.00
2022-12-11T14:56:34.858Z,54.58
2022-12-11T14:59:06.531Z,46.15
2022-12-11T15:01:35.674Z,180.60
2022-12-11T15:04:14.330Z,126.30
2022-12-11T15:06:45.901Z,205.02
2022-12-11T15:09:19.233Z,186.43
2022-12-11T15:11:47.910Z,133.38
2022-12-11T15:14:17.960Z,193.88
2022-12-11T15:16:45.577Z,174.20
2022-12-11T15:19:41.656Z,54.40
2022-12-11T15:22:12.839Z,58.08
2022-12-11T15:24:44.293Z,53.42
2022-12-11T15:27:35.451Z,45.85
2022-12-11T15:30:14.704Z,39.35
2022-12-11T15:32:44.218Z,38.72
2022-12-11T15:35:27.953Z,37.10
2022-12-11T15:37:56.276Z,42.42
2022-12-11T15:40:23.693Z,43.83
2022-12-11T15:42:50.897Z,46.92
2022-12-11T15:45:20.358Z,36.60
2022-12-11T15:47:48.396Z,44.20
2022-12-11T15:50:16.757Z,48.47
2022-12-11T15:52:43.910Z,42.13
2022-12-11T15:55:11.584Z,39.50
2022-12-11T15:57:43.060Z,34.47
2022-12-11T16:00:14.473Z,35.45
2022-12-11T16:02:40.949Z,41.90
2022-12-11T16:05:10.810Z,37.50
2022-12-11T16:07:37.641Z,32.28
2022-12-11T16:10:04.906Z,32.22
2022-12-11T16:12:31.406Z,36.83
2022-12-11T16:14:58.057Z,42.05
2022-12-11T16:17:24.565Z,36.28
2022-12-11T16:19:53.138Z,33.75
2022-12-11T16:22:19.664Z,34.85
2022-12-11T16:24:46.234Z,37.38
2022-12-11T16:27:12.764Z,34.80
2022-12-11T16:29:41.545Z,37.95
2022-12-11T16:32:08.882Z,33.45
2022-12-11T16:34:37.266Z,37.17
2022-12-11T16:37:05.517Z,35.70
2022-12-11T16:39:32.258Z,36.55
2022-12-11T16:41:58.727Z,36.67
2022-12-11T16:44:26.789Z,34.67
2022-12-11T16:46:53.865Z,32.60
2022-12-11T16:49:21.434Z,34.03
2022-12-11T16:51:49.446Z,33.97
2022-12-11T16:54:16.512Z,36.30
2022-12-11T16:56:45.000Z,37.15
2022-12-11T16:59:12.809Z,97.07
2022-12-11T17:01:39.895Z,69.10
2022-12-11T17:04:06.785Z,45.33
2022-12-11T17:06:33.196Z,40.00
2022-12-11T17:08:59.639Z,44.75
2022-12-11T17:11:26.233Z,51.15
2022-12-11T17:13:55.020Z,41.83
2022-12-11T17:16:22.374Z,33.35
2022-12-11T17:18:48.863Z,35.88
2022-12-11T17:21:17.278Z,39.88
2022-12-11T17:23:44.571Z,41.33
2022-12-11T17:26:11.540Z,36.88
2022-12-11T17:28:38.564Z,34.80
2022-12-11T17:31:12.178Z,43.28
2022-12-11T17:33:38.685Z,37.25
2022-12-11T17:36:06.893Z,37.67
2022-12-11T17:38:33.945Z,35.35
2022-12-11T17:41:00.329Z,35.80
2022-12-11T17:43:26.921Z,35.17
2022-12-11T17:45:53.327Z,35.35
2022-12-11T17:48:22.390Z,35.30
2022-12-11T17:50:51.886Z,39.97
2022-12-11T17:53:22.190Z,38.38
2022-12-11T17:55:51.602Z,40.55
2022-12-11T17:58:22.293Z,36.95
2022-12-11T18:00:51.652Z,35.85
2022-12-11T18:03:18.620Z,37.50
2022-12-11T18:05:47.749Z,39.80
2022-12-11T18:08:16.374Z,41.65
2022-12-11T18:10:43.253Z,40.15
2022-12-11T18:13:09.708Z,42.78
2022-12-11T18:15:36.897Z,38.97
2022-12-11T18:18:04.074Z,39.92
2022-12-11T18:20:32.065Z,41.60
2022-12-11T18:22:59.192Z,40.92
2022-12-11T18:25:25.595Z,37.05
2022-12-11T18:27:52.203Z,40.13
2022-12-11T18:30:18.583Z,42.17
2022-12-11T18:32:45.201Z,41.92
2022-12-11T18:44:40.794Z,47.67
2022-12-11T18:47:07.219Z,44.42
2022-12-11T18:49:33.642Z,46.78
2022-12-11T18:52:03.378Z,46.83
2022-12-11T18:54:29.791Z,52.28
2022-12-11T18:56:56.192Z,44.95
2022-12-11T18:59:23.464Z,45.00
2022-12-11T19:01:49.968Z,48.50
2022-12-11T19:04:16.403Z,62.25
2022-12-11T19:06:42.799Z,51.53
2022-12-11T19:09:12.628Z,64.28
2022-12-11T19:11:40.774Z,57.80
2022-12-11T19:14:09.013Z,45.17
2022-12-11T19:16:39.003Z,39.60
2022-12-11T19:19:09.896Z,43.22
2022-12-11T19:21:42.862Z,40.30
2022-12-11T19:24:13.523Z,44.25
2022-12-11T19:26:43.732Z,39.97
2022-12-11T19:29:14.300Z,48.42
2022-12-11T19:31:44.098Z,41.65
2022-12-11T19:34:17.455Z,40.45
2022-12-11T19:36:43.914Z,39.67
2022-12-11T19:39:13.259Z,38.33
2022-12-11T19:41:40.720Z,37.83
2022-12-11T19:44:07.539Z,40.15
2022-12-11T19:46:37.140Z,38.15
2022-12-11T19:49:04.531Z,39.30
2022-12-11T19:51:33.933Z,40.80
2022-12-11T19:54:02.794Z,38.95
2022-12-11T19:56:29.937Z,41.10
2022-12-11T19:58:56.726Z,36.55
2022-12-11T20:01:28.587Z,39.80
2022-12-11T20:03:57.902Z,41.97
2022-12-11T20:06:26.681Z,39.83
2022-12-11T20:08:53.167Z,37.50
2022-12-11T20:11:19.729Z,39.20
2022-12-11T20:13:49.084Z,41.63
2022-12-11T20:16:16.481Z,42.78
2022-12-11T20:18:43.207Z,35.33
2022-12-11T20:21:13.213Z,39.95
2022-12-11T20:23:40.900Z,37.72
2022-12-11T20:26:11.439Z,35.03
2022-12-11T20:28:38.361Z,37.92
2022-12-11T20:31:13.673Z,38.50
2022-12-11T20:33:44.593Z,40.63
2022-12-11T20:36:14.155Z,37.67
2022-12-11T20:38:41.646Z,40.92
2022-12-11T20:41:13.324Z,41.65
2022-12-11T20:43:39.838Z,40.67
2022-12-11T20:46:08.539Z,40.15
2022-12-11T20:48:39.691Z,40.97
2022-12-11T20:53:34.892Z,41.58
2022-12-11T20:56:02.364Z,48.42
2022-12-11T20:58:28.786Z,39.35
2022-12-11T21:00:55.282Z,44.30
2022-12-11T21:03:24.639Z,45.80
2022-12-11T21:05:51.153Z,50.03
2022-12-11T21:08:17.565Z,44.20
2022-12-11T21:10:46.348Z,46.13
2022-12-11T21:13:12.876Z,42.72
2022-12-11T21:15:40.785Z,44.47
2022-12-11T21:18:08.286Z,44.40
2022-12-11T21:20:34.993Z,48.13
2022-12-11T21:23:02.623Z,49.13
2022-12-11T21:25:29.419Z,41.85
2022-12-11T21:27:58.738Z,43.25
2022-12-11T21:30:25.159Z,43.80
2022-12-11T21:32:51.579Z,44.40
2022-12-11T21:35:18.034Z,52.65
2022-12-11T21:37:44.452Z,47.78
2022-12-11T21:40:11.312Z,46.13
2022-12-11T21:42:37.708Z,47.22
2022-12-11T21:47:50.883Z,47.90
2022-12-11T21:50:17.855Z,52.10
2022-12-11T21:52:44.488Z,45.30
2022-12-11T21:55:11.995Z,41.90
2022-12-11T21:57:38.591Z,47.15
2022-12-11T22:00:05.739Z,48.80
2022-12-11T22:02:41.029Z,49.03
2022-12-11T22:05:08.370Z,52.33
2022-12-11T22:07:34.784Z,51.20
2022-12-11T22:10:01.225Z,48.08
2022-12-11T22:12:28.677Z,51.60
2022-12-11T22:14:56.159Z,48.53
2022-12-11T22:17:22.650Z,49.50
2022-12-11T22:19:51.876Z,45.25
2022-12-11T22:22:19.209Z,51.50
2022-12-11T22:24:46.136Z,53.72
2022-12-11T22:27:12.607Z,49.67
2022-12-11T22:29:39.127Z,56.15
2022-12-11T22:32:05.549Z,54.78
2022-12-11T22:34:34.861Z,52.28
2022-12-11T22:37:01.261Z,56.28
2022-12-11T22:39:27.667Z,55.95
2022-12-11T22:41:54.098Z,53.42
2022-12-11T22:44:21.718Z,47.60
2022-12-11T22:46:50.448Z,49.58
2022-12-11T22:49:20.998Z,50.10
2022-12-11T22:51:47.711Z,53.83
2022-12-11T22:54:14.247Z,52.20
2022-12-11T22:56:40.674Z,52.03
2022-12-11T22:59:07.606Z,51.83
2022-12-11T23:01:34.514Z,55.53
2022-12-11T23:04:01.006Z,52.38
2022-12-11T23:06:27.433Z,50.53
2022-12-11T23:08:57.551Z,51.95
2022-12-11T23:11:29.599Z,54.47
2022-12-11T23:13:56.567Z,48.35
2022-12-11T23:16:24.673Z,47.42
2022-12-11T23:18:51.126Z,50.35
2022-12-11T23:21:17.713Z,46.92
2022-12-11T23:23:44.136Z,48.63
2022-12-11T23:26:20.181Z,47.40
2022-12-11T23:28:47.409Z,42.90
2022-12-11T23:31:14.896Z,51.05
2022-12-11T23:33:41.432Z,44.50
2022-12-11T23:36:08.521Z,48.75
2022-12-11T23:38:35.460Z,48.95
2022-12-11T23:41:05.820Z,51.42
2022-12-11T23:43:34.229Z,47.72
2022-12-11T23:46:00.701Z,51.33
2022-12-11T23:48:27.125Z,47.80
2022-12-11T23:50:58.941Z,50.13
2022-12-11T23:53:25.384Z,49.13
2022-12-11T23:55:51.860Z,52.88
2022-12-11T23:58:18.273Z,50.88
